sensor_id;sensor_type;location;lat;lon;timestamp;temperature;humidity
67054;SHT31;53960;51.826;5.850;2023-12-28T00:00:15;10.28;87.13
67054;SHT31;53960;51.826;5.850;2023-12-28T00:02:40;10.25;87.32
67054;SHT31;53960;51.826;5.850;2023-12-28T00:05:06;10.24;87.64
67054;SHT31;53960;51.826;5.850;2023-12-28T00:07:32;10.22;87.81
67054;SHT31;53960;51.826;5.850;2023-12-28T00:09:57;10.19;88.03
67054;SHT31;53960;51.826;5.850;2023-12-28T00:12:22;10.24;88.19
67054;SHT31;53960;51.826;5.850;2023-12-28T00:14:48;10.14;88.59
67054;SHT31;53960;51.826;5.850;2023-12-28T00:17:14;10.21;88.76
67054;SHT31;53960;51.826;5.850;2023-12-28T00:19:39;10.18;88.83
67054;SHT31;53960;51.826;5.850;2023-12-28T00:22:05;10.22;88.99
67054;SHT31;53960;51.826;5.850;2023-12-28T00:24:30;10.26;88.92
67054;SHT31;53960;51.826;5.850;2023-12-28T00:26:56;10.29;89.18
67054;SHT31;53960;51.826;5.850;2023-12-28T00:29:21;10.35;89.04
67054;SHT31;53960;51.826;5.850;2023-12-28T00:31:46;10.25;89.29
67054;SHT31;53960;51.826;5.850;2023-12-28T00:34:11;10.29;89.31
67054;SHT31;53960;51.826;5.850;2023-12-28T00:36:37;10.31;89.56
67054;SHT31;53960;51.826;5.850;2023-12-28T00:39:02;10.26;89.67
67054;SHT31;53960;51.826;5.850;2023-12-28T00:41:28;10.26;89.88
67054;SHT31;53960;51.826;5.850;2023-12-28T00:43:53;10.32;89.63
67054;SHT31;53960;51.826;5.850;2023-12-28T00:46:18;10.25;89.96
67054;SHT31;53960;51.826;5.850;2023-12-28T00:48:44;10.25;90.15
67054;SHT31;53960;51.826;5.850;2023-12-28T00:51:09;10.21;90.42
67054;SHT31;53960;51.826;5.850;2023-12-28T00:53:34;10.19;90.54
67054;SHT31;53960;51.826;5.850;2023-12-28T00:56:00;10.31;90.29
67054;SHT31;53960;51.826;5.850;2023-12-28T00:58:25;10.34;90.24
67054;SHT31;53960;51.826;5.850;2023-12-28T01:00:51;10.34;90.39
67054;SHT31;53960;51.826;5.850;2023-12-28T01:03:19;10.19;90.88
67054;SHT31;53960;51.826;5.850;2023-12-28T01:05:46;10.21;90.95
67054;SHT31;53960;51.826;5.850;2023-12-28T01:08:15;10.28;90.98
67054;SHT31;53960;51.826;5.850;2023-12-28T01:10:40;10.28;91.06
67054;SHT31;53960;51.826;5.850;2023-12-28T01:13:06;10.24;91.21
67054;SHT31;53960;51.826;5.850;2023-12-28T01:15:31;10.26;91.23
67054;SHT31;53960;51.826;5.850;2023-12-28T01:17:56;10.25;91.35
67054;SHT31;53960;51.826;5.850;2023-12-28T01:20:22;10.31;91.36
67054;SHT31;53960;51.826;5.850;2023-12-28T01:22:47;10.29;91.51
67054;SHT31;53960;51.826;5.850;2023-12-28T01:25:15;10.28;91.50
67054;SHT31;53960;51.826;5.850;2023-12-28T01:27:40;10.29;91.53
67054;SHT31;53960;51.826;5.850;2023-12-28T01:30:08;10.26;91.71
67054;SHT31;53960;51.826;5.850;2023-12-28T01:32:33;10.26;91.85
67054;SHT31;53960;51.826;5.850;2023-12-28T01:34:59;10.34;91.92
67054;SHT31;53960;51.826;5.850;2023-12-28T01:37:24;10.34;91.90
67054;SHT31;53960;51.826;5.850;2023-12-28T01:39:49;10.34;91.87
67054;SHT31;53960;51.826;5.850;2023-12-28T01:42:15;10.29;92.02
67054;SHT31;53960;51.826;5.850;2023-12-28T01:44:40;10.24;92.36
67054;SHT31;53960;51.826;5.850;2023-12-28T01:47:06;10.28;92.38
67054;SHT31;53960;51.826;5.850;2023-12-28T01:49:32;10.29;92.30
67054;SHT31;53960;51.826;5.850;2023-12-28T01:52:00;10.34;92.13
67054;SHT31;53960;51.826;5.850;2023-12-28T01:54:26;10.41;92.10
67054;SHT31;53960;51.826;5.850;2023-12-28T01:56:52;10.41;92.26
67054;SHT31;53960;51.826;5.850;2023-12-28T01:59:17;10.38;92.31
67054;SHT31;53960;51.826;5.850;2023-12-28T02:01:44;10.29;92.62
67054;SHT31;53960;51.826;5.850;2023-12-28T02:04:10;10.31;92.70
67054;SHT31;53960;51.826;5.850;2023-12-28T02:06:35;10.35;92.72
67054;SHT31;53960;51.826;5.850;2023-12-28T02:09:01;10.38;92.72
67054;SHT31;53960;51.826;5.850;2023-12-28T02:11:26;10.38;92.61
67054;SHT31;53960;51.826;5.850;2023-12-28T02:13:52;10.31;92.77
67054;SHT31;53960;51.826;5.850;2023-12-28T02:16:32;10.29;92.88
67054;SHT31;53960;51.826;5.850;2023-12-28T02:19:04;10.32;92.93
67054;SHT31;53960;51.826;5.850;2023-12-28T02:21:36;10.29;92.93
67054;SHT31;53960;51.826;5.850;2023-12-28T02:24:01;10.24;93.18
67054;SHT31;53960;51.826;5.850;2023-12-28T02:26:27;10.29;93.13
67054;SHT31;53960;51.826;5.850;2023-12-28T02:28:52;10.29;92.93
67054;SHT31;53960;51.826;5.850;2023-12-28T02:31:21;10.28;93.27
67054;SHT31;53960;51.826;5.850;2023-12-28T02:33:59;10.26;93.09
67054;SHT31;53960;51.826;5.850;2023-12-28T02:36:29;10.24;93.26
67054;SHT31;53960;51.826;5.850;2023-12-28T02:38:56;10.19;93.48
67054;SHT31;53960;51.826;5.850;2023-12-28T02:41:24;10.24;93.44
67054;SHT31;53960;51.826;5.850;2023-12-28T02:43:51;10.24;93.36
67054;SHT31;53960;51.826;5.850;2023-12-28T02:46:17;10.26;93.40
67054;SHT31;53960;51.826;5.850;2023-12-28T02:48:43;10.22;93.41
67054;SHT31;53960;51.826;5.850;2023-12-28T02:51:08;10.24;93.41
67054;SHT31;53960;51.826;5.850;2023-12-28T02:53:34;10.24;93.50
67054;SHT31;53960;51.826;5.850;2023-12-28T02:55:59;10.22;93.46
67054;SHT31;53960;51.826;5.850;2023-12-28T02:58:24;10.24;93.52
67054;SHT31;53960;51.826;5.850;2023-12-28T03:00:50;10.22;93.57
67054;SHT31;53960;51.826;5.850;2023-12-28T03:03:15;10.16;93.83
67054;SHT31;53960;51.826;5.850;2023-12-28T03:05:40;10.25;93.49
67054;SHT31;53960;51.826;5.850;2023-12-28T03:08:06;10.25;93.40
67054;SHT31;53960;51.826;5.850;2023-12-28T03:10:32;10.05;93.84
67054;SHT31;53960;51.826;5.850;2023-12-28T03:12:57;10.08;93.94
67054;SHT31;53960;51.826;5.850;2023-12-28T03:15:23;10.05;94.08
67054;SHT31;53960;51.826;5.850;2023-12-28T03:17:48;10.14;93.74
67054;SHT31;53960;51.826;5.850;2023-12-28T03:20:14;10.12;93.81
67054;SHT31;53960;51.826;5.850;2023-12-28T03:22:40;10.14;93.70
67054;SHT31;53960;51.826;5.850;2023-12-28T03:25:06;10.18;93.56
67054;SHT31;53960;51.826;5.850;2023-12-28T03:27:32;10.18;93.45
67054;SHT31;53960;51.826;5.850;2023-12-28T03:29:57;10.22;93.39
67054;SHT31;53960;51.826;5.850;2023-12-28T03:32:23;10.21;93.32
67054;SHT31;53960;51.826;5.850;2023-12-28T03:34:48;10.24;93.06
67054;SHT31;53960;51.826;5.850;2023-12-28T03:37:13;10.21;93.10
67054;SHT31;53960;51.826;5.850;2023-12-28T03:39:39;10.22;93.08
67054;SHT31;53960;51.826;5.850;2023-12-28T03:42:04;10.19;93.11
67054;SHT31;53960;51.826;5.850;2023-12-28T03:44:29;10.25;93.14
67054;SHT31;53960;51.826;5.850;2023-12-28T03:46:55;10.31;92.97
67054;SHT31;53960;51.826;5.850;2023-12-28T03:49:21;10.28;92.84
67054;SHT31;53960;51.826;5.850;2023-12-28T03:51:49;10.36;92.66
67054;SHT31;53960;51.826;5.850;2023-12-28T03:54:16;10.34;92.63
67054;SHT31;53960;51.826;5.850;2023-12-28T03:56:41;10.36;92.67
67054;SHT31;53960;51.826;5.850;2023-12-28T03:59:08;10.28;92.82
67054;SHT31;53960;51.826;5.850;2023-12-28T04:01:34;10.34;92.69
67054;SHT31;53960;51.826;5.850;2023-12-28T04:04:00;10.38;92.48
67054;SHT31;53960;51.826;5.850;2023-12-28T04:06:26;10.39;92.42
67054;SHT31;53960;51.826;5.850;2023-12-28T04:08:51;10.39;92.35
67054;SHT31;53960;51.826;5.850;2023-12-28T04:11:17;10.41;92.10
67054;SHT31;53960;51.826;5.850;2023-12-28T04:13:42;10.39;91.99
67054;SHT31;53960;51.826;5.850;2023-12-28T04:16:12;10.42;91.90
67054;SHT31;53960;51.826;5.850;2023-12-28T04:18:37;10.38;91.99
67054;SHT31;53960;51.826;5.850;2023-12-28T04:21:02;10.35;92.01
67054;SHT31;53960;51.826;5.850;2023-12-28T04:23:28;10.42;91.65
67054;SHT31;53960;51.826;5.850;2023-12-28T04:25:53;10.43;91.25
67054;SHT31;53960;51.826;5.850;2023-12-28T04:28:19;10.41;91.43
67054;SHT31;53960;51.826;5.850;2023-12-28T04:30:44;10.48;91.16
67054;SHT31;53960;51.826;5.850;2023-12-28T04:33:10;10.49;91.03
67054;SHT31;53960;51.826;5.850;2023-12-28T04:35:35;10.43;91.11
67054;SHT31;53960;51.826;5.850;2023-12-28T04:38:00;10.46;91.06
67054;SHT31;53960;51.826;5.850;2023-12-28T04:40:25;10.53;90.48
67054;SHT31;53960;51.826;5.850;2023-12-28T04:42:52;10.53;90.46
67054;SHT31;53960;51.826;5.850;2023-12-28T04:45:17;10.55;90.21
67054;SHT31;53960;51.826;5.850;2023-12-28T04:47:44;10.52;90.26
67054;SHT31;53960;51.826;5.850;2023-12-28T04:50:09;10.50;90.42
67054;SHT31;53960;51.826;5.850;2023-12-28T04:52:35;10.48;90.16
67054;SHT31;53960;51.826;5.850;2023-12-28T04:55:00;10.56;89.91
67054;SHT31;53960;51.826;5.850;2023-12-28T04:57:25;10.55;89.80
67054;SHT31;53960;51.826;5.850;2023-12-28T04:59:53;10.59;89.77
67054;SHT31;53960;51.826;5.850;2023-12-28T05:02:19;10.60;89.70
67054;SHT31;53960;51.826;5.850;2023-12-28T05:04:44;10.59;89.98
67054;SHT31;53960;51.826;5.850;2023-12-28T05:07:10;10.53;90.11
67054;SHT31;53960;51.826;5.850;2023-12-28T05:09:35;10.64;89.46
67054;SHT31;53960;51.826;5.850;2023-12-28T05:12:00;10.63;89.31
67054;SHT31;53960;51.826;5.850;2023-12-28T05:14:26;10.69;89.32
67054;SHT31;53960;51.826;5.850;2023-12-28T05:16:51;10.72;88.93
67054;SHT31;53960;51.826;5.850;2023-12-28T05:19:17;10.74;89.03
67054;SHT31;53960;51.826;5.850;2023-12-28T05:21:42;10.74;88.66
67054;SHT31;53960;51.826;5.850;2023-12-28T05:24:07;10.77;88.71
67054;SHT31;53960;51.826;5.850;2023-12-28T05:26:33;10.81;88.52
67054;SHT31;53960;51.826;5.850;2023-12-28T05:28:58;10.89;87.98
67054;SHT31;53960;51.826;5.850;2023-12-28T05:31:24;10.89;88.13
67054;SHT31;53960;51.826;5.850;2023-12-28T05:33:50;10.93;87.82
67054;SHT31;53960;51.826;5.850;2023-12-28T05:36:15;10.89;87.98
67054;SHT31;53960;51.826;5.850;2023-12-28T05:38:40;10.90;87.73
67054;SHT31;53960;51.826;5.850;2023-12-28T05:41:06;10.90;87.68
67054;SHT31;53960;51.826;5.850;2023-12-28T05:43:31;10.94;87.41
67054;SHT31;53960;51.826;5.850;2023-12-28T05:45:57;10.89;87.79
67054;SHT31;53960;51.826;5.850;2023-12-28T05:48:23;10.97;87.19
67054;SHT31;53960;51.826;5.850;2023-12-28T05:50:48;10.97;87.27
67054;SHT31;53960;51.826;5.850;2023-12-28T05:53:14;11.00;87.02
67054;SHT31;53960;51.826;5.850;2023-12-28T05:55:43;11.03;86.87
67054;SHT31;53960;51.826;5.850;2023-12-28T05:58:09;11.01;86.82
67054;SHT31;53960;51.826;5.850;2023-12-28T06:00:34;11.01;86.76
67054;SHT31;53960;51.826;5.850;2023-12-28T06:03:02;11.01;86.58
67054;SHT31;53960;51.826;5.850;2023-12-28T06:05:28;10.97;87.22
67054;SHT31;53960;51.826;5.850;2023-12-28T06:07:54;11.00;86.82
67054;SHT31;53960;51.826;5.850;2023-12-28T06:10:19;11.03;86.62
67054;SHT31;53960;51.826;5.850;2023-12-28T06:12:45;11.03;86.43
67054;SHT31;53960;51.826;5.850;2023-12-28T06:15:11;10.93;86.79
67054;SHT31;53960;51.826;5.850;2023-12-28T06:17:36;10.93;87.08
67054;SHT31;53960;51.826;5.850;2023-12-28T06:20:02;11.04;86.30
67054;SHT31;53960;51.826;5.850;2023-12-28T06:22:27;11.04;86.24
67054;SHT31;53960;51.826;5.850;2023-12-28T06:24:56;11.00;86.75
67054;SHT31;53960;51.826;5.850;2023-12-28T06:27:21;11.07;86.45
67054;SHT31;53960;51.826;5.850;2023-12-28T06:29:48;10.99;86.86
67054;SHT31;53960;51.826;5.850;2023-12-28T06:32:14;11.00;86.59
67054;SHT31;53960;51.826;5.850;2023-12-28T06:34:39;11.11;86.32
67054;SHT31;53960;51.826;5.850;2023-12-28T06:37:06;11.10;86.44
67054;SHT31;53960;51.826;5.850;2023-12-28T06:39:31;11.08;86.69
67054;SHT31;53960;51.826;5.850;2023-12-28T06:41:56;11.08;86.54
67054;SHT31;53960;51.826;5.850;2023-12-28T06:44:22;11.08;86.60
67054;SHT31;53960;51.826;5.850;2023-12-28T06:46:47;11.08;86.48
67054;SHT31;53960;51.826;5.850;2023-12-28T06:49:12;11.11;86.47
67054;SHT31;53960;51.826;5.850;2023-12-28T06:51:38;11.11;86.47
67054;SHT31;53960;51.826;5.850;2023-12-28T06:54:03;11.10;86.70
67054;SHT31;53960;51.826;5.850;2023-12-28T06:56:28;11.04;87.10
67054;SHT31;53960;51.826;5.850;2023-12-28T06:58:54;11.07;86.75
67054;SHT31;53960;51.826;5.850;2023-12-28T07:01:21;11.14;86.58
67054;SHT31;53960;51.826;5.850;2023-12-28T07:03:47;11.14;86.65
67054;SHT31;53960;51.826;5.850;2023-12-28T07:06:13;11.17;86.25
67054;SHT31;53960;51.826;5.850;2023-12-28T07:08:39;11.15;86.61
67054;SHT31;53960;51.826;5.850;2023-12-28T07:11:04;11.15;86.42
67054;SHT31;53960;51.826;5.850;2023-12-28T07:13:30;11.15;86.67
67054;SHT31;53960;51.826;5.850;2023-12-28T07:15:55;11.18;86.42
67054;SHT31;53960;51.826;5.850;2023-12-28T07:18:21;11.20;86.27
67054;SHT31;53960;51.826;5.850;2023-12-28T07:20:46;11.14;86.61
67054;SHT31;53960;51.826;5.850;2023-12-28T07:23:12;11.13;86.72
67054;SHT31;53960;51.826;5.850;2023-12-28T07:25:38;11.20;86.10
67054;SHT31;53960;51.826;5.850;2023-12-28T07:28:03;11.14;86.38
67054;SHT31;53960;51.826;5.850;2023-12-28T07:30:29;11.17;86.26
67054;SHT31;53960;51.826;5.850;2023-12-28T07:32:55;11.11;86.53
67054;SHT31;53960;51.826;5.850;2023-12-28T07:35:20;11.10;86.35
67054;SHT31;53960;51.826;5.850;2023-12-28T07:37:45;11.08;86.49
67054;SHT31;53960;51.826;5.850;2023-12-28T07:40:12;11.10;86.13
67054;SHT31;53960;51.826;5.850;2023-12-28T07:42:38;11.11;86.02
67054;SHT31;53960;51.826;5.850;2023-12-28T07:45:04;11.06;86.27
67054;SHT31;53960;51.826;5.850;2023-12-28T07:47:32;11.08;86.07
67054;SHT31;53960;51.826;5.850;2023-12-28T07:49:59;11.03;86.39
67054;SHT31;53960;51.826;5.850;2023-12-28T07:52:24;11.10;85.92
67054;SHT31;53960;51.826;5.850;2023-12-28T07:54:50;11.06;86.24
67054;SHT31;53960;51.826;5.850;2023-12-28T07:57:15;11.07;86.22
67054;SHT31;53960;51.826;5.850;2023-12-28T07:59:40;11.06;86.41
67054;SHT31;53960;51.826;5.850;2023-12-28T08:02:05;11.11;86.17
67054;SHT31;53960;51.826;5.850;2023-12-28T08:04:31;11.06;86.57
67054;SHT31;53960;51.826;5.850;2023-12-28T08:06:58;11.10;86.29
67054;SHT31;53960;51.826;5.850;2023-12-28T08:09:23;11.13;86.16
67054;SHT31;53960;51.826;5.850;2023-12-28T08:11:48;11.17;86.15
67054;SHT31;53960;51.826;5.850;2023-12-28T08:14:14;11.17;86.20
67054;SHT31;53960;51.826;5.850;2023-12-28T08:16:39;11.17;86.24
67054;SHT31;53960;51.826;5.850;2023-12-28T08:19:05;11.21;86.14
67054;SHT31;53960;51.826;5.850;2023-12-28T08:21:30;11.21;86.16
67054;SHT31;53960;51.826;5.850;2023-12-28T08:23:56;11.17;86.41
67054;SHT31;53960;51.826;5.850;2023-12-28T08:26:22;11.17;86.39
67054;SHT31;53960;51.826;5.850;2023-12-28T08:28:47;11.23;86.42
67054;SHT31;53960;51.826;5.850;2023-12-28T08:31:12;11.24;86.35
67054;SHT31;53960;51.826;5.850;2023-12-28T08:33:38;11.27;86.03
67054;SHT31;53960;51.826;5.850;2023-12-28T08:36:06;11.25;86.24
67054;SHT31;53960;51.826;5.850;2023-12-28T08:38:31;11.24;86.21
67054;SHT31;53960;51.826;5.850;2023-12-28T08:40:57;11.24;86.40
67054;SHT31;53960;51.826;5.850;2023-12-28T08:43:23;11.18;86.54
67054;SHT31;53960;51.826;5.850;2023-12-28T08:45:49;11.23;86.34
67054;SHT31;53960;51.826;5.850;2023-12-28T08:48:14;11.21;86.51
67054;SHT31;53960;51.826;5.850;2023-12-28T08:50:39;11.23;86.44
67054;SHT31;53960;51.826;5.850;2023-12-28T08:53:05;11.20;86.44
67054;SHT31;53960;51.826;5.850;2023-12-28T08:55:33;11.25;86.29
67054;SHT31;53960;51.826;5.850;2023-12-28T08:57:59;11.21;86.70
67054;SHT31;53960;51.826;5.850;2023-12-28T09:00:24;11.23;86.33
67054;SHT31;53960;51.826;5.850;2023-12-28T09:02:50;11.27;86.26
67054;SHT31;53960;51.826;5.850;2023-12-28T09:05:16;11.32;86.47
67054;SHT31;53960;51.826;5.850;2023-12-28T09:07:42;11.21;86.55
67054;SHT31;53960;51.826;5.850;2023-12-28T09:10:12;11.21;86.79
67054;SHT31;53960;51.826;5.850;2023-12-28T09:12:37;11.30;86.16
67054;SHT31;53960;51.826;5.850;2023-12-28T09:15:06;11.32;86.46
67054;SHT31;53960;51.826;5.850;2023-12-28T09:17:32;11.36;86.11
67054;SHT31;53960;51.826;5.850;2023-12-28T09:19:57;11.38;85.69
67054;SHT31;53960;51.826;5.850;2023-12-28T09:22:23;11.31;86.19
67054;SHT31;53960;51.826;5.850;2023-12-28T09:24:49;11.35;86.24
67054;SHT31;53960;51.826;5.850;2023-12-28T09:27:14;11.36;86.09
67054;SHT31;53960;51.826;5.850;2023-12-28T09:29:40;11.45;85.94
67054;SHT31;53960;51.826;5.850;2023-12-28T09:32:06;11.46;85.90
67054;SHT31;53960;51.826;5.850;2023-12-28T09:34:31;11.41;85.99
67054;SHT31;53960;51.826;5.850;2023-12-28T09:36:56;11.42;86.05
67054;SHT31;53960;51.826;5.850;2023-12-28T09:39:22;11.50;85.91
67054;SHT31;53960;51.826;5.850;2023-12-28T09:41:49;11.51;85.74
67054;SHT31;53960;51.826;5.850;2023-12-28T09:44:18;11.51;85.83
67054;SHT31;53960;51.826;5.850;2023-12-28T09:46:44;11.51;85.85
67054;SHT31;53960;51.826;5.850;2023-12-28T09:49:11;11.54;85.79
67054;SHT31;53960;51.826;5.850;2023-12-28T09:51:36;11.61;85.85
67054;SHT31;53960;51.826;5.850;2023-12-28T09:54:05;11.58;85.50
67054;SHT31;53960;51.826;5.850;2023-12-28T09:56:32;11.65;85.50
67054;SHT31;53960;51.826;5.850;2023-12-28T09:58:57;11.68;85.47
67054;SHT31;53960;51.826;5.850;2023-12-28T10:01:23;11.69;85.04
67054;SHT31;53960;51.826;5.850;2023-12-28T10:03:48;11.72;85.02
67054;SHT31;53960;51.826;5.850;2023-12-28T10:06:14;11.75;84.95
67054;SHT31;53960;51.826;5.850;2023-12-28T10:08:48;11.72;85.01
67054;SHT31;53960;51.826;5.850;2023-12-28T10:11:18;11.73;84.55
67054;SHT31;53960;51.826;5.850;2023-12-28T10:13:44;11.78;84.48
67054;SHT31;53960;51.826;5.850;2023-12-28T10:16:11;11.76;84.48
67054;SHT31;53960;51.826;5.850;2023-12-28T10:18:39;11.79;84.40
67054;SHT31;53960;51.826;5.850;2023-12-28T10:21:05;11.83;84.27
67054;SHT31;53960;51.826;5.850;2023-12-28T10:23:30;11.82;84.52
67054;SHT31;53960;51.826;5.850;2023-12-28T10:25:56;11.81;84.56
67054;SHT31;53960;51.826;5.850;2023-12-28T10:28:21;11.81;84.62
67054;SHT31;53960;51.826;5.850;2023-12-28T10:30:47;11.73;84.30
67054;SHT31;53960;51.826;5.850;2023-12-28T10:33:13;11.85;83.94
67054;SHT31;53960;51.826;5.850;2023-12-28T10:35:39;11.81;83.72
67054;SHT31;53960;51.826;5.850;2023-12-28T10:38:09;11.82;83.81
67054;SHT31;53960;51.826;5.850;2023-12-28T10:40:35;11.79;83.47
67054;SHT31;53960;51.826;5.850;2023-12-28T10:43:06;11.75;83.59
67054;SHT31;53960;51.826;5.850;2023-12-28T10:45:34;11.79;83.49
67054;SHT31;53960;51.826;5.850;2023-12-28T10:48:09;11.69;83.98
67054;SHT31;53960;51.826;5.850;2023-12-28T10:50:47;11.76;83.73
67054;SHT31;53960;51.826;5.850;2023-12-28T10:53:37;11.83;83.70
67054;SHT31;53960;51.826;5.850;2023-12-28T10:58:49;11.89;83.51
67054;SHT31;53960;51.826;5.850;2023-12-28T11:01:28;11.96;83.30
67054;SHT31;53960;51.826;5.850;2023-12-28T11:06:46;11.97;82.79
67054;SHT31;53960;51.826;5.850;2023-12-28T11:09:13;11.94;83.38
67054;SHT31;53960;51.826;5.850;2023-12-28T11:11:42;12.00;82.66
67054;SHT31;53960;51.826;5.850;2023-12-28T11:14:08;12.02;82.74
67054;SHT31;53960;51.826;5.850;2023-12-28T11:16:34;12.00;82.51
67054;SHT31;53960;51.826;5.850;2023-12-28T11:18:59;11.96;82.52
67054;SHT31;53960;51.826;5.850;2023-12-28T11:21:25;11.96;82.95
67054;SHT31;53960;51.826;5.850;2023-12-28T11:23:52;12.02;82.49
67054;SHT31;53960;51.826;5.850;2023-12-28T11:26:21;11.99;82.51
67054;SHT31;53960;51.826;5.850;2023-12-28T11:28:47;12.02;82.64
67054;SHT31;53960;51.826;5.850;2023-12-28T11:31:16;11.97;82.44
67054;SHT31;53960;51.826;5.850;2023-12-28T11:33:50;11.96;82.91
67054;SHT31;53960;51.826;5.850;2023-12-28T11:36:25;11.99;82.76
67054;SHT31;53960;51.826;5.850;2023-12-28T11:38:53;11.97;83.37
67054;SHT31;53960;51.826;5.850;2023-12-28T11:41:21;12.00;83.19
67054;SHT31;53960;51.826;5.850;2023-12-28T11:43:55;11.97;83.38
67054;SHT31;53960;51.826;5.850;2023-12-28T11:46:21;11.99;83.47
67054;SHT31;53960;51.826;5.850;2023-12-28T11:48:47;12.00;83.25
67054;SHT31;53960;51.826;5.850;2023-12-28T11:51:12;11.97;83.55
67054;SHT31;53960;51.826;5.850;2023-12-28T11:53:38;12.03;83.26
67054;SHT31;53960;51.826;5.850;2023-12-28T11:56:03;12.00;83.36
67054;SHT31;53960;51.826;5.850;2023-12-28T11:58:30;11.96;83.44
67054;SHT31;53960;51.826;5.850;2023-12-28T12:00:55;11.97;83.38
67054;SHT31;53960;51.826;5.850;2023-12-28T12:03:21;11.96;83.72
67054;SHT31;53960;51.826;5.850;2023-12-28T12:05:46;12.04;83.59
67054;SHT31;53960;51.826;5.850;2023-12-28T12:08:11;12.06;83.46
67054;SHT31;53960;51.826;5.850;2023-12-28T12:10:43;12.03;83.04
67054;SHT31;53960;51.826;5.850;2023-12-28T12:13:08;12.02;83.20
67054;SHT31;53960;51.826;5.850;2023-12-28T12:15:34;12.00;83.22
67054;SHT31;53960;51.826;5.850;2023-12-28T12:18:00;11.96;83.34
67054;SHT31;53960;51.826;5.850;2023-12-28T12:20:26;11.96;83.48
67054;SHT31;53960;51.826;5.850;2023-12-28T12:22:57;11.97;83.64
67054;SHT31;53960;51.826;5.850;2023-12-28T12:25:23;11.96;83.51
67054;SHT31;53960;51.826;5.850;2023-12-28T12:27:48;11.96;83.23
67054;SHT31;53960;51.826;5.850;2023-12-28T12:30:13;11.90;83.31
67054;SHT31;53960;51.826;5.850;2023-12-28T12:32:40;11.90;83.62
67054;SHT31;53960;51.826;5.850;2023-12-28T12:35:09;11.92;83.30
67054;SHT31;53960;51.826;5.850;2023-12-28T12:37:34;11.93;83.42
67054;SHT31;53960;51.826;5.850;2023-12-28T12:40:03;11.92;83.60
67054;SHT31;53960;51.826;5.850;2023-12-28T12:42:28;11.89;83.57
67054;SHT31;53960;51.826;5.850;2023-12-28T12:44:54;11.89;83.82
67054;SHT31;53960;51.826;5.850;2023-12-28T12:47:20;11.93;83.48
67054;SHT31;53960;51.826;5.850;2023-12-28T12:49:45;11.90;83.42
67054;SHT31;53960;51.826;5.850;2023-12-28T12:52:10;11.93;83.32
67054;SHT31;53960;51.826;5.850;2023-12-28T12:54:36;11.96;83.13
67054;SHT31;53960;51.826;5.850;2023-12-28T12:57:02;11.83;83.49
67054;SHT31;53960;51.826;5.850;2023-12-28T12:59:29;11.86;83.46
67054;SHT31;53960;51.826;5.850;2023-12-28T13:01:55;11.85;83.26
67054;SHT31;53960;51.826;5.850;2023-12-28T13:04:21;11.86;83.23
67054;SHT31;53960;51.826;5.850;2023-12-28T13:06:46;11.90;83.56
67054;SHT31;53960;51.826;5.850;2023-12-28T13:09:12;11.92;83.71
67054;SHT31;53960;51.826;5.850;2023-12-28T13:11:37;11.92;83.29
67054;SHT31;53960;51.826;5.850;2023-12-28T13:14:03;11.92;83.13
67054;SHT31;53960;51.826;5.850;2023-12-28T13:16:29;11.93;83.39
67054;SHT31;53960;51.826;5.850;2023-12-28T13:18:55;11.86;83.57
67054;SHT31;53960;51.826;5.850;2023-12-28T13:21:20;11.87;83.45
67054;SHT31;53960;51.826;5.850;2023-12-28T13:23:46;11.83;83.82
67054;SHT31;53960;51.826;5.850;2023-12-28T13:26:11;11.81;83.77
67054;SHT31;53960;51.826;5.850;2023-12-28T13:28:37;11.90;84.02
67054;SHT31;53960;51.826;5.850;2023-12-28T13:31:02;11.86;83.46
67054;SHT31;53960;51.826;5.850;2023-12-28T13:33:28;11.86;83.98
67054;SHT31;53960;51.826;5.850;2023-12-28T13:35:54;11.83;83.93
67054;SHT31;53960;51.826;5.850;2023-12-28T13:38:19;11.89;83.68
67054;SHT31;53960;51.826;5.850;2023-12-28T13:40:44;11.93;83.29
67054;SHT31;53960;51.826;5.850;2023-12-28T13:43:10;11.90;83.52
67054;SHT31;53960;51.826;5.850;2023-12-28T13:45:35;11.89;83.34
67054;SHT31;53960;51.826;5.850;2023-12-28T13:48:02;11.85;83.41
67054;SHT31;53960;51.826;5.850;2023-12-28T13:50:27;11.83;83.88
67054;SHT31;53960;51.826;5.850;2023-12-28T13:52:53;11.79;84.15
67054;SHT31;53960;51.826;5.850;2023-12-28T13:55:19;11.83;83.75
67054;SHT31;53960;51.826;5.850;2023-12-28T13:57:44;11.76;84.11
67054;SHT31;53960;51.826;5.850;2023-12-28T14:00:10;11.81;84.16
67054;SHT31;53960;51.826;5.850;2023-12-28T14:02:36;11.82;84.08
67054;SHT31;53960;51.826;5.850;2023-12-28T14:05:02;11.86;83.70
67054;SHT31;53960;51.826;5.850;2023-12-28T14:07:27;11.76;84.19
67054;SHT31;53960;51.826;5.850;2023-12-28T14:09:52;11.79;84.33
67054;SHT31;53960;51.826;5.850;2023-12-28T14:12:18;11.79;84.42
67054;SHT31;53960;51.826;5.850;2023-12-28T14:14:43;11.81;84.40
67054;SHT31;53960;51.826;5.850;2023-12-28T14:17:08;11.85;84.26
67054;SHT31;53960;51.826;5.850;2023-12-28T14:19:34;11.81;84.30
67054;SHT31;53960;51.826;5.850;2023-12-28T14:22:00;11.75;84.46
67054;SHT31;53960;51.826;5.850;2023-12-28T14:24:25;11.81;84.46
67054;SHT31;53960;51.826;5.850;2023-12-28T14:26:53;11.79;84.64
67054;SHT31;53960;51.826;5.850;2023-12-28T14:29:20;11.73;84.55
67054;SHT31;53960;51.826;5.850;2023-12-28T14:31:46;11.71;85.06
67054;SHT31;53960;51.826;5.850;2023-12-28T14:34:12;11.71;84.93
67054;SHT31;53960;51.826;5.850;2023-12-28T14:36:38;11.75;84.58
67054;SHT31;53960;51.826;5.850;2023-12-28T14:39:07;11.69;85.02
67054;SHT31;53960;51.826;5.850;2023-12-28T14:41:37;11.63;85.18
67054;SHT31;53960;51.826;5.850;2023-12-28T14:44:03;11.65;85.38
67054;SHT31;53960;51.826;5.850;2023-12-28T14:46:28;11.66;85.25
67054;SHT31;53960;51.826;5.850;2023-12-28T14:48:55;11.65;85.30
67054;SHT31;53960;51.826;5.850;2023-12-28T14:51:20;11.62;85.20
67054;SHT31;53960;51.826;5.850;2023-12-28T14:53:47;11.72;84.75
67054;SHT31;53960;51.826;5.850;2023-12-28T14:56:12;11.73;84.83
67054;SHT31;53960;51.826;5.850;2023-12-28T14:58:38;11.65;85.00
67054;SHT31;53960;51.826;5.850;2023-12-28T15:01:05;11.63;85.04
67054;SHT31;53960;51.826;5.850;2023-12-28T15:03:30;11.61;85.12
67054;SHT31;53960;51.826;5.850;2023-12-28T15:05:56;11.54;85.21
67054;SHT31;53960;51.826;5.850;2023-12-28T15:08:24;11.65;84.88
67054;SHT31;53960;51.826;5.850;2023-12-28T15:10:50;11.58;85.23
67054;SHT31;53960;51.826;5.850;2023-12-28T15:13:17;11.61;85.00
67054;SHT31;53960;51.826;5.850;2023-12-28T15:15:43;11.66;84.86
67054;SHT31;53960;51.826;5.850;2023-12-28T15:18:09;11.59;84.64
67054;SHT31;53960;51.826;5.850;2023-12-28T15:20:35;11.65;84.44
67054;SHT31;53960;51.826;5.850;2023-12-28T15:23:01;11.61;84.62
67054;SHT31;53960;51.826;5.850;2023-12-28T15:25:27;11.65;83.98
67054;SHT31;53960;51.826;5.850;2023-12-28T15:27:52;11.58;84.09